Language selection

My Weather Profile Weather Topics  | 

Haro Strait: Past 24 Hour Conditions

 

La Perouse Bank - 46206

06:00 PM PST 20 January 2022Buoy position: 48.83N 126.0W
Disclaimer

This table is a summary of hourly weather conditions for the past 24 hours.
Please note that these observations might not always be representative of weather conditions over their associated marine area.

Date / Time
(PST)
Wind(knots) Wave height(m) Wave period(s) Pressure(kPa) Air tempC) Water tempC)
20 January 2022
18:00 NW 17 gust 22 3.5 10.0 102.9 8 9
17:00 NW 17 gust 23 3.5 10.0 102.8 8 9
16:00 WNW 17 gust 23 N/A 10.0 102.7 8 9
15:00 WNW 17 gust 22 N/A 9.0 102.6 8 9
14:00 WNW 22 gust 25 3.3 9.0 102.6 8 9
13:00 WNW 16 gust 22 3.3 10.0 102.6 8 9
12:00 WNW 17 gust 22 3.3 8.0 102.5 8 9
11:00 WNW 19 gust 25 3.1 8.0 102.5 8 9
10:00 WNW 23 gust 31 3.0 8.0 102.4 7 9
9:00 WNW 19 N/A N/A N/A N/A N/A
8:00 W 19 gust 25 2.9 7.0 102.2 8 9
7:00 WNW 22 gust 25 2.5 7.0 102.1 8 9
6:00 WNW 17 gust 22 2.2 14.0 102.0 9 9
5:00 WNW 17 gust 22 2.3 6.0 101.9 9 9
4:00 W 22 gust 25 2.0 14.0 101.8 9 9
3:00 WSW 17 gust 22 1.9 14.0 101.8 10 9
2:00 SW 16 gust 19 1.8 14.0 101.8 10 9
1:00 SSW 12 gust 13 1.8 6.0 101.8 10 9
0:00 SSE 12 gust 13 1.9 6.0 101.8 9 9
19 January 2022
23:00 SSE 16 gust 19 1.9 5.0 101.9 9 9
22:00 SE 19 gust 23 2.0 5.0 101.9 9 9
21:00 SE 23 gust 27 2.2 5.0 102.0 8 9
20:00 ESE 23 gust 27 1.9 5.0 102.0 8 9
19:00 SE 23 gust 29 1.9 5.0 102.1 8 9
18:00 ESE 22 gust 27 1.7 5.0 102.1 8 9

Zoom-in to make a selection

Map of Pacific - Georgia Basin marine weather areas Sentry Shoal - 46131 Halibut Bank - 46146 La Perouse Bank - 46206 Georgia Strait - 46303 English Bay - 46304 Discovery Island Esquimalt Harbour Kelp Reefs Malahat Race Rocks Lightstation Saturna Island Sheringham Point University of Victoria Victoria Gonzales Victoria Int'l Airport Ballenas Islands Campbell River Airport Comox Airport Entrance Island Fanny Island Nanaimo Airport Sisters Islets Estevan Point Port Alberni Tofino Airport Grief Point Howe Sound - Pam Rocks Powell River Airport Sechelt Squamish Airport Point Atkinson Sand Heads Lightstation Tsawwassen Ferry Terminal Vancouver Int'l Airport Vancouver Harbour West Vancouver
Legend:
buoy Buoy
land station Land Station

Pacific - Georgia Basin Area

Another Region

What we are doing

Features

Hello Weather

Hello Weather: our upgraded telephone weather service is here. 1-833-794-3556 or 1-833-79HELLO.

Date modified: